createdAt,value
2022-12-01T00:01:24.685Z,37.50
2022-12-01T00:03:52.210Z,40.33
2022-12-01T00:06:21.842Z,38.70
2022-12-01T00:09:14.065Z,43.27
2022-12-01T00:11:44.875Z,39.47
2022-12-01T00:14:12.299Z,39.07
2022-12-01T00:16:41.221Z,43.43
2022-12-01T00:19:08.873Z,39.50
2022-12-01T00:21:36.318Z,48.90
2022-12-01T00:24:03.989Z,39.83
2022-12-01T00:26:31.445Z,39.80
2022-12-01T00:28:59.700Z,32.73
2022-12-01T00:31:28.153Z,36.33
2022-12-01T00:33:56.038Z,41.63
2022-12-01T00:36:24.115Z,35.93
2022-12-01T00:38:55.692Z,34.50
2022-12-01T00:41:25.558Z,35.93
2022-12-01T00:43:53.287Z,42.30
2022-12-01T00:46:21.380Z,38.10
2022-12-01T00:48:49.736Z,39.63
2022-12-01T00:51:19.852Z,35.80
2022-12-01T00:53:47.379Z,38.97
2022-12-01T00:56:15.243Z,39.67
2022-12-01T00:58:42.718Z,40.57
2022-12-01T01:01:10.310Z,36.73
2022-12-01T01:03:37.911Z,34.33
2022-12-01T01:06:11.122Z,34.13
2022-12-01T01:08:39.464Z,42.23
2022-12-01T01:11:08.866Z,46.73
2022-12-01T01:13:37.352Z,36.37
2022-12-01T01:16:08.490Z,37.83
2022-12-01T01:18:36.179Z,41.60
2022-12-01T01:21:09.133Z,41.73
2022-12-01T01:23:38.566Z,40.93
2022-12-01T01:26:16.172Z,34.20
2022-12-01T01:28:45.555Z,43.13
2022-12-01T01:31:18.042Z,41.63
2022-12-01T01:33:45.690Z,37.43
2022-12-01T01:36:14.353Z,41.37
2022-12-01T01:38:42.249Z,37.33
2022-12-01T01:41:10.147Z,49.40
2022-12-01T01:44:04.425Z,35.40
2022-12-01T01:46:34.743Z,33.43
2022-12-01T01:49:08.048Z,38.37
2022-12-01T01:51:41.559Z,34.53
2022-12-01T01:54:17.822Z,35.43
2022-12-01T01:56:47.884Z,46.40
2022-12-01T01:59:20.849Z,43.07
2022-12-01T02:01:57.019Z,42.07
2022-12-01T02:04:26.413Z,36.93
2022-12-01T02:06:54.994Z,38.10
2022-12-01T02:09:22.490Z,36.47
2022-12-01T02:12:17.708Z,37.40
2022-12-01T02:15:03.798Z,36.67
2022-12-01T02:17:46.795Z,34.97
2022-12-01T02:20:27.648Z,32.30
2022-12-01T02:23:28.857Z,36.50
2022-12-01T02:26:25.346Z,40.30
2022-12-01T02:29:25.195Z,38.80
2022-12-01T02:31:59.208Z,38.50
2022-12-01T02:34:44.509Z,36.27
2022-12-01T02:37:47.698Z,35.43
2022-12-01T02:40:28.811Z,34.80
2022-12-01T02:43:34.504Z,35.63
2022-12-01T02:46:27.124Z,36.50
2022-12-01T02:48:58.408Z,35.27
2022-12-01T02:51:30.700Z,37.17
2022-12-01T02:54:00.235Z,36.70
2022-12-01T02:56:27.904Z,33.53
2022-12-01T02:58:55.660Z,36.20
2022-12-01T03:02:04.016Z,33.47
2022-12-01T03:05:14.452Z,30.98
2022-12-01T03:07:49.688Z,31.80
2022-12-01T03:10:29.514Z,36.40
2022-12-01T03:13:09.092Z,35.97
2022-12-01T03:15:53.464Z,39.00
2022-12-01T03:18:33.148Z,41.90
2022-12-01T03:21:13.246Z,37.23
2022-12-01T03:23:48.676Z,34.03
2022-12-01T03:26:19.690Z,33.10
2022-12-01T03:28:55.487Z,41.40
2022-12-01T03:31:31.966Z,36.70
2022-12-01T03:34:05.689Z,37.15
2022-12-01T03:36:39.410Z,35.57
2022-12-01T03:39:11.866Z,34.13
2022-12-01T03:41:44.521Z,31.40
2022-12-01T03:44:25.167Z,35.90
2022-12-01T03:47:00.493Z,40.43
2022-12-01T03:49:29.181Z,39.23
2022-12-01T03:51:59.567Z,36.53
2022-12-01T03:54:38.500Z,33.83
2022-12-01T03:57:10.951Z,34.90
2022-12-01T03:59:40.451Z,36.90
2022-12-01T04:02:08.446Z,29.27
2022-12-01T04:04:36.072Z,38.90
2022-12-01T04:07:04.238Z,36.20
2022-12-01T04:09:31.670Z,32.97
2022-12-01T04:12:17.717Z,41.40
2022-12-01T04:14:45.239Z,33.17
2022-12-01T04:17:12.658Z,31.33
2022-12-01T04:19:40.063Z,36.13
2022-12-01T04:22:07.557Z,40.13
2022-12-01T04:24:35.089Z,38.83
2022-12-01T04:27:02.513Z,44.47
2022-12-01T04:29:30.178Z,38.93
2022-12-01T04:31:57.612Z,41.00
2022-12-01T04:34:25.080Z,41.03
2022-12-01T04:36:52.563Z,40.53
2022-12-01T04:39:20.072Z,36.23
2022-12-01T04:41:47.519Z,45.57
2022-12-01T04:44:15.716Z,37.43
2022-12-01T04:46:43.370Z,36.27
2022-12-01T04:49:10.930Z,36.97
2022-12-01T04:51:38.539Z,38.47
2022-12-01T04:54:06.235Z,35.67
2022-12-01T04:56:33.843Z,34.40
2022-12-01T04:59:01.356Z,38.30
2022-12-01T05:01:28.867Z,33.63
2022-12-01T05:03:56.536Z,35.20
2022-12-01T05:06:26.803Z,34.07
2022-12-01T05:08:56.626Z,36.57
2022-12-01T05:11:27.868Z,36.33
2022-12-01T05:13:55.567Z,36.47
2022-12-01T05:16:28.904Z,43.27
2022-12-01T05:19:18.189Z,36.50
2022-12-01T05:21:47.537Z,40.73
2022-12-01T05:24:16.494Z,36.23
2022-12-01T05:26:44.695Z,38.37
2022-12-01T05:29:12.953Z,39.17
2022-12-01T05:31:41.196Z,39.47
2022-12-01T05:34:09.223Z,39.23
2022-12-01T05:36:37.200Z,40.73
2022-12-01T05:39:05.562Z,35.80
2022-12-01T05:41:33.035Z,41.07
2022-12-01T05:44:00.655Z,40.70
2022-12-01T05:46:28.127Z,40.13
2022-12-01T05:48:55.685Z,40.07
2022-12-01T05:51:23.315Z,37.90
2022-12-01T05:53:53.282Z,37.80
2022-12-01T05:56:22.552Z,42.93
2022-12-01T05:58:51.401Z,34.63
2022-12-01T06:01:19.130Z,40.67
2022-12-01T06:03:46.720Z,33.57
2022-12-01T06:06:14.293Z,34.70
2022-12-01T06:08:41.732Z,37.87
2022-12-01T06:11:09.388Z,36.40
2022-12-01T06:13:36.918Z,38.50
2022-12-01T06:16:06.515Z,41.73
2022-12-01T06:18:37.254Z,37.37
2022-12-01T06:21:06.228Z,39.03
2022-12-01T06:23:34.351Z,36.97
2022-12-01T06:26:02.082Z,34.50
2022-12-01T06:28:29.887Z,32.83
2022-12-01T06:31:02.750Z,34.30
2022-12-01T06:33:32.000Z,38.40
2022-12-01T06:36:04.187Z,36.77
2022-12-01T06:38:34.173Z,37.87
2022-12-01T06:41:01.999Z,35.50
2022-12-01T06:43:30.308Z,37.27
2022-12-01T06:46:01.524Z,39.47
2022-12-01T06:48:30.080Z,35.20
2022-12-01T06:50:58.732Z,38.33
2022-12-01T06:53:28.459Z,38.97
2022-12-01T06:56:04.429Z,39.97
2022-12-01T06:58:32.866Z,42.27
2022-12-01T07:01:01.160Z,36.53
2022-12-01T07:03:28.711Z,40.03
2022-12-01T07:06:00.673Z,36.50
2022-12-01T07:08:29.657Z,37.87
2022-12-01T07:11:01.854Z,34.53
2022-12-01T07:13:33.364Z,34.93
2022-12-01T07:16:03.414Z,36.10
2022-12-01T07:18:32.168Z,36.53
2022-12-01T07:21:01.546Z,29.43
2022-12-01T07:23:29.799Z,35.67
2022-12-01T07:26:08.302Z,34.60
2022-12-01T07:28:35.856Z,38.60
2022-12-01T07:31:05.774Z,47.57
2022-12-01T07:33:33.629Z,33.33
2022-12-01T07:36:01.633Z,38.37
2022-12-01T07:38:30.007Z,32.40
2022-12-01T07:41:05.984Z,41.80
2022-12-01T07:43:34.378Z,37.73
2022-12-01T07:46:09.037Z,38.87
2022-12-01T07:48:38.606Z,39.47
2022-12-01T07:51:08.877Z,38.60
2022-12-01T07:53:36.899Z,35.43
2022-12-01T07:56:08.572Z,34.33
2022-12-01T07:58:37.143Z,36.93
2022-12-01T08:01:08.397Z,36.43
2022-12-01T08:03:36.685Z,36.67
2022-12-01T08:06:05.544Z,40.83
2022-12-01T08:08:35.708Z,34.33
2022-12-01T08:11:06.644Z,36.07
2022-12-01T08:13:34.333Z,40.70
2022-12-01T08:16:06.249Z,39.80
2022-12-01T08:18:38.516Z,39.03
2022-12-01T08:21:07.928Z,40.20
2022-12-01T08:23:35.580Z,43.57
2022-12-01T08:26:21.666Z,43.57
2022-12-01T08:28:49.950Z,42.67
2022-12-01T08:31:23.690Z,36.63
2022-12-01T08:33:52.285Z,42.30
2022-12-01T08:36:21.160Z,41.20
2022-12-01T08:38:53.186Z,35.27
2022-12-01T08:41:21.671Z,43.27
2022-12-01T08:43:57.837Z,41.40
2022-12-01T08:46:27.671Z,39.37
2022-12-01T08:48:57.639Z,39.10
2022-12-01T08:51:26.169Z,41.20
2022-12-01T08:53:56.108Z,44.07
2022-12-01T08:56:30.511Z,37.13
2022-12-01T08:58:58.272Z,45.60
2022-12-01T09:01:26.557Z,45.37
2022-12-01T09:04:11.111Z,35.97
2022-12-01T09:06:41.374Z,41.10
2022-12-01T09:09:11.586Z,40.57
2022-12-01T09:11:39.534Z,36.47
2022-12-01T09:14:07.138Z,36.60
2022-12-01T09:16:34.754Z,45.27
2022-12-01T09:19:02.533Z,40.70
2022-12-01T09:21:31.850Z,45.33
2022-12-01T09:24:00.378Z,43.30
2022-12-01T09:26:29.277Z,42.13
2022-12-01T09:29:01.531Z,42.70
2022-12-01T09:31:29.571Z,41.40
2022-12-01T09:34:05.608Z,46.43
2022-12-01T09:36:34.924Z,41.63
2022-12-01T09:39:03.169Z,44.57
2022-12-01T09:41:40.663Z,45.50
2022-12-01T09:46:49.700Z,42.23
2022-12-01T09:49:38.316Z,45.83
2022-12-01T09:52:10.677Z,41.77
2022-12-01T09:54:38.462Z,43.17
2022-12-01T09:57:06.264Z,51.23
2022-12-01T09:59:41.786Z,44.57
2022-12-01T10:02:41.606Z,44.43
2022-12-01T10:06:18.064Z,39.87
2022-12-01T10:08:38.344Z,38.87
2022-12-01T10:11:20.575Z,49.20
2022-12-01T10:13:48.262Z,44.03
2022-12-01T10:16:24.697Z,45.87
2022-12-01T10:19:47.834Z,50.17
2022-12-01T10:22:41.474Z,49.83
2022-12-01T10:25:22.979Z,55.13
2022-12-01T10:28:19.568Z,49.23
2022-12-01T10:30:52.027Z,40.50
2022-12-01T10:33:48.862Z,43.70
2022-12-01T10:36:16.417Z,45.80
2022-12-01T10:38:43.894Z,49.97
2022-12-01T10:41:14.899Z,41.77
2022-12-01T10:43:47.430Z,48.33
2022-12-01T10:46:29.185Z,44.70
2022-12-01T10:48:59.756Z,43.47
2022-12-01T10:51:28.313Z,42.03
2022-12-01T10:54:00.602Z,44.43
2022-12-01T10:56:28.522Z,49.60
2022-12-01T10:58:59.918Z,41.50
2022-12-01T11:01:35.778Z,49.20
2022-12-01T11:04:46.307Z,40.60
2022-12-01T11:07:42.893Z,47.87
2022-12-01T11:10:32.992Z,46.07
2022-12-01T11:13:13.228Z,42.13
2022-12-01T11:15:49.372Z,39.97
2022-12-01T11:18:23.708Z,38.77
2022-12-01T11:21:12.584Z,42.27
2022-12-01T11:23:51.316Z,41.50
2022-12-01T11:26:32.645Z,38.80
2022-12-01T11:29:38.319Z,44.30
2022-12-01T11:32:27.777Z,40.40
2022-12-01T11:34:55.236Z,40.40
2022-12-01T11:37:26.129Z,41.60
2022-12-01T11:39:54.253Z,42.73
2022-12-01T11:42:30.572Z,51.60
2022-12-01T11:45:25.266Z,47.97
2022-12-01T11:48:05.045Z,41.97
2022-12-01T11:50:37.765Z,43.67
2022-12-01T11:53:41.462Z,46.20
2022-12-01T11:56:28.961Z,50.13
2022-12-01T11:59:05.807Z,41.00
2022-12-01T12:01:57.149Z,43.33
2022-12-01T12:04:42.833Z,38.90
2022-12-01T12:07:25.622Z,44.83
2022-12-01T12:10:31.890Z,52.57
2022-12-01T12:13:21.160Z,42.30
2022-12-01T12:16:19.797Z,43.63
2022-12-01T12:18:59.896Z,40.30
2022-12-01T12:21:33.121Z,45.30
2022-12-01T12:24:00.599Z,42.60
2022-12-01T12:26:30.745Z,46.80
2022-12-01T12:29:19.778Z,44.77
2022-12-01T12:31:53.071Z,43.87
2022-12-01T12:34:35.042Z,48.53
2022-12-01T12:37:24.876Z,49.03
2022-12-01T12:40:15.423Z,43.87
2022-12-01T12:43:04.268Z,42.00
2022-12-01T12:45:52.025Z,42.03
2022-12-01T12:48:28.411Z,46.05
2022-12-01T12:51:20.235Z,44.97
2022-12-01T12:54:01.963Z,43.17
2022-12-01T12:56:32.048Z,43.33
2022-12-01T12:59:14.888Z,45.67
2022-12-01T13:02:04.796Z,47.90
2022-12-01T13:04:56.497Z,51.30
2022-12-01T13:07:37.927Z,45.27
2022-12-01T13:10:16.503Z,42.07
2022-12-01T13:12:54.603Z,43.20
2022-12-01T13:15:22.566Z,48.70
2022-12-01T13:17:58.587Z,49.17
2022-12-01T13:20:29.443Z,55.10
2022-12-01T13:22:59.448Z,53.77
2022-12-01T13:25:38.811Z,46.60
2022-12-01T13:28:17.489Z,54.60
2022-12-01T13:31:05.925Z,53.27
2022-12-01T13:33:36.290Z,48.43
2022-12-01T13:39:07.611Z,50.47
2022-12-01T13:41:39.899Z,43.53
2022-12-01T13:44:22.714Z,46.23
2022-12-01T13:47:12.272Z,42.00
2022-12-01T13:49:45.892Z,45.37
2022-12-01T13:52:16.389Z,53.07
2022-12-01T13:55:08.383Z,43.73
2022-12-01T13:57:38.346Z,53.63
2022-12-01T14:00:24.188Z,46.40
2022-12-01T14:03:13.364Z,50.67
2022-12-01T14:05:43.597Z,47.97
2022-12-01T14:08:24.715Z,52.83
2022-12-01T14:10:58.113Z,47.90
2022-12-01T14:13:26.771Z,54.37
2022-12-01T14:16:00.223Z,53.40
2022-12-01T14:18:34.977Z,56.00
2022-12-01T14:21:06.410Z,55.13
2022-12-01T14:23:36.842Z,67.03
2022-12-01T14:26:11.798Z,58.43
2022-12-01T14:29:03.722Z,51.93
2022-12-01T14:31:34.405Z,57.80
2022-12-01T14:34:18.751Z,54.30
2022-12-01T14:36:52.450Z,52.00
2022-12-01T14:39:24.647Z,54.40
2022-12-01T14:41:56.692Z,62.27
2022-12-01T14:44:33.322Z,64.07
2022-12-01T14:47:19.255Z,61.47
2022-12-01T14:49:52.959Z,55.53
2022-12-01T14:52:24.745Z,53.53
2022-12-01T14:54:55.092Z,57.53
2022-12-01T14:57:34.911Z,64.37
2022-12-01T15:00:07.084Z,49.17
2022-12-01T15:02:39.927Z,53.63
2022-12-01T15:05:12.778Z,51.87
2022-12-01T15:07:46.449Z,56.57
2022-12-01T15:10:21.007Z,51.80
2022-12-01T15:12:50.332Z,56.40
2022-12-01T15:15:27.316Z,55.93
2022-12-01T15:17:57.778Z,50.83
2022-12-01T15:20:28.336Z,50.93
2022-12-01T15:22:57.143Z,46.27
2022-12-01T15:25:29.434Z,50.20
2022-12-01T15:28:04.389Z,48.43
2022-12-01T15:30:32.630Z,51.60
2022-12-01T15:33:01.080Z,48.53
2022-12-01T15:35:28.704Z,52.07
2022-12-01T15:37:57.139Z,52.33
2022-12-01T15:43:22.258Z,54.50
2022-12-01T15:45:56.216Z,59.33
2022-12-01T15:48:35.323Z,52.40
2022-12-01T15:51:27.089Z,58.23
2022-12-01T15:53:59.132Z,54.30
2022-12-01T15:56:36.496Z,56.50
2022-12-01T15:59:13.190Z,51.65
2022-12-01T16:01:42.887Z,40.10
2022-12-01T16:04:35.532Z,49.47
2022-12-01T16:07:08.373Z,54.07
2022-12-01T16:09:56.604Z,55.50
2022-12-01T16:15:18.770Z,51.67
2022-12-01T16:17:54.029Z,45.67
2022-12-01T16:20:42.688Z,54.80
2022-12-01T16:23:15.389Z,56.63
2022-12-01T16:25:46.042Z,50.57
2022-12-01T16:28:25.019Z,44.80
2022-12-01T16:30:53.125Z,43.10
2022-12-01T16:33:26.429Z,49.27
2022-12-01T16:35:54.927Z,48.57
2022-12-01T16:38:24.821Z,44.80
2022-12-01T16:40:56.568Z,48.23
2022-12-01T16:43:26.788Z,50.03
2022-12-01T16:46:00.570Z,47.20
2022-12-01T16:48:28.107Z,47.20
2022-12-01T16:50:56.754Z,51.13
2022-12-01T16:53:24.302Z,50.27
2022-12-01T16:55:57.551Z,47.33
2022-12-01T16:58:25.761Z,48.60
2022-12-01T17:00:53.996Z,51.00
2022-12-01T17:03:24.878Z,49.73
2022-12-01T17:05:53.507Z,45.63
2022-12-01T17:08:22.031Z,55.20
2022-12-01T17:10:51.058Z,52.90
2022-12-01T17:13:20.189Z,59.40
2022-12-01T17:15:50.249Z,54.80
2022-12-01T17:18:19.283Z,55.43
2022-12-01T17:20:57.299Z,47.47
2022-12-01T17:23:24.928Z,53.63
2022-12-01T17:25:52.897Z,56.00
2022-12-01T17:28:20.711Z,45.60
2022-12-01T17:30:48.333Z,56.67
2022-12-01T17:33:15.859Z,52.90
2022-12-01T17:35:43.572Z,50.67
2022-12-01T17:38:11.218Z,60.20
2022-12-01T17:40:38.660Z,57.20
2022-12-01T17:43:08.319Z,63.53
2022-12-01T17:45:42.058Z,59.73
2022-12-01T17:48:09.753Z,55.60
2022-12-01T17:50:40.395Z,58.93
2022-12-01T17:53:07.966Z,60.83
2022-12-01T17:55:39.626Z,63.17
2022-12-01T17:58:09.280Z,60.23
2022-12-01T18:00:36.943Z,62.27
2022-12-01T18:03:04.777Z,55.33
2022-12-01T18:05:32.492Z,63.83
2022-12-01T18:08:00.276Z,61.77
2022-12-01T18:10:28.087Z,61.13
2022-12-01T18:12:55.634Z,60.33
2022-12-01T18:15:26.584Z,60.93
2022-12-01T18:17:56.949Z,64.43
2022-12-01T18:20:24.477Z,61.53
2022-12-01T18:22:52.097Z,55.37
2022-12-01T18:25:19.714Z,52.23
2022-12-01T18:27:47.767Z,55.07
2022-12-01T18:30:15.543Z,56.97
2022-12-01T18:32:43.109Z,55.07
2022-12-01T18:35:10.644Z,51.53
2022-12-01T18:37:38.095Z,52.83
2022-12-01T18:40:06.659Z,50.83
2022-12-01T18:42:34.377Z,52.27
2022-12-01T18:45:01.892Z,50.63
2022-12-01T18:47:31.882Z,51.60
2022-12-01T18:49:59.615Z,46.53
2022-12-01T18:52:27.318Z,48.13
2022-12-01T18:54:54.873Z,53.43
2022-12-01T18:57:22.523Z,49.73
2022-12-01T18:59:51.018Z,49.53
2022-12-01T19:02:19.917Z,44.77
2022-12-01T19:04:50.250Z,42.20
2022-12-01T19:07:18.598Z,39.33
2022-12-01T19:09:46.466Z,53.30
2022-12-01T19:12:15.270Z,46.10
2022-12-01T19:14:42.896Z,44.80
2022-12-01T19:17:10.482Z,41.47
2022-12-01T19:19:41.393Z,39.03
2022-12-01T19:22:09.005Z,40.67
2022-12-01T19:24:36.608Z,36.80
2022-12-01T19:27:04.602Z,43.37
2022-12-01T19:29:32.277Z,41.57
2022-12-01T19:32:01.682Z,38.43
2022-12-01T19:34:29.449Z,45.60
2022-12-01T19:36:57.048Z,41.83
2022-12-01T19:39:24.612Z,41.40
2022-12-01T19:41:53.282Z,41.43
2022-12-01T19:44:21.151Z,41.30
2022-12-01T19:46:52.089Z,45.20
2022-12-01T19:49:25.608Z,43.47
2022-12-01T19:51:53.227Z,40.73
2022-12-01T19:54:21.389Z,45.70
2022-12-01T19:56:49.266Z,35.70
2022-12-01T19:59:16.904Z,43.20
2022-12-01T20:01:44.510Z,39.07
2022-12-01T20:04:12.227Z,34.60
2022-12-01T20:06:39.713Z,39.73
2022-12-01T20:09:08.431Z,44.47
2022-12-01T20:11:36.025Z,40.20
2022-12-01T20:14:07.450Z,40.50
2022-12-01T20:16:35.679Z,46.77
2022-12-01T20:19:04.726Z,52.77
2022-12-01T20:21:42.337Z,46.50
2022-12-01T20:24:14.031Z,53.17
2022-12-01T20:26:44.712Z,48.43
2022-12-01T20:29:19.906Z,55.43
2022-12-01T20:31:48.640Z,53.53
2022-12-01T20:34:20.490Z,51.10
2022-12-01T20:36:48.672Z,52.00
2022-12-01T20:39:16.543Z,53.47
2022-12-01T20:41:44.979Z,50.10
2022-12-01T20:44:13.967Z,52.13
2022-12-01T20:46:41.672Z,48.73
2022-12-01T20:49:09.677Z,58.37
2022-12-01T20:51:37.201Z,49.00
2022-12-01T20:56:57.168Z,62.23
2022-12-01T20:59:25.046Z,49.47
2022-12-01T21:01:52.566Z,45.87
2022-12-01T21:04:20.030Z,46.97
2022-12-01T21:06:47.767Z,54.90
2022-12-01T21:09:15.555Z,53.10
2022-12-01T21:12:07.833Z,48.10
2022-12-01T21:14:42.146Z,44.97
2022-12-01T21:17:25.263Z,44.53
2022-12-01T21:19:56.635Z,48.57
2022-12-01T21:22:25.518Z,44.83
2022-12-01T21:25:06.810Z,45.17
2022-12-01T21:27:34.427Z,43.37
2022-12-01T21:30:07.254Z,48.33
2022-12-01T21:32:41.142Z,40.63
2022-12-01T21:35:31.503Z,41.93
2022-12-01T21:38:04.263Z,42.85
2022-12-01T21:40:31.822Z,38.97
2022-12-01T21:43:09.898Z,45.33
2022-12-01T21:45:37.573Z,44.93
2022-12-01T21:48:18.685Z,38.10
2022-12-01T21:50:52.269Z,42.77
2022-12-01T21:53:22.318Z,37.43
2022-12-01T21:55:49.826Z,41.67
2022-12-01T21:58:24.850Z,39.77
2022-12-01T22:00:54.310Z,44.17
2022-12-01T22:03:30.207Z,45.97
2022-12-01T22:09:02.649Z,47.70
2022-12-01T22:11:31.235Z,46.90
2022-12-01T22:14:17.461Z,39.37
2022-12-01T22:16:56.378Z,41.10
2022-12-01T22:19:32.623Z,44.13
2022-12-01T22:22:16.510Z,47.53
2022-12-01T22:25:13.119Z,48.93
2022-12-01T22:27:43.361Z,43.90
2022-12-01T22:30:19.909Z,46.93
2022-12-01T22:32:58.458Z,44.97
2022-12-01T22:35:31.054Z,45.23
2022-12-01T22:38:17.384Z,40.13
2022-12-01T22:40:55.339Z,41.40
2022-12-01T22:43:43.112Z,45.00
2022-12-01T22:46:20.052Z,41.38
2022-12-01T22:48:56.841Z,45.17
2022-12-01T22:51:30.561Z,45.33
2022-12-01T22:54:01.838Z,36.60
2022-12-01T22:56:33.971Z,43.30
2022-12-01T22:59:23.394Z,44.13
2022-12-01T23:01:55.407Z,45.47
2022-12-01T23:04:26.730Z,49.67
2022-12-01T23:06:59.632Z,46.30
2022-12-01T23:09:35.036Z,45.93
2022-12-01T23:12:22.834Z,42.70
2022-12-01T23:14:53.698Z,51.15
2022-12-01T23:17:32.927Z,46.00
2022-12-01T23:20:35.385Z,49.57
2022-12-01T23:23:08.321Z,41.80
2022-12-01T23:25:36.084Z,38.87
2022-12-01T23:28:08.192Z,43.03
2022-12-01T23:30:39.109Z,45.00
2022-12-01T23:33:09.274Z,43.10
2022-12-01T23:35:45.144Z,46.77
2022-12-01T23:38:19.346Z,42.73
2022-12-01T23:40:49.171Z,46.43
2022-12-01T23:43:21.253Z,48.83
2022-12-01T23:45:51.972Z,48.53
2022-12-01T23:48:23.227Z,41.83
2022-12-01T23:50:54.081Z,49.03
2022-12-01T23:53:32.502Z,46.90
2022-12-01T23:56:10.106Z,51.20
